sensor_id;sensor_type;location;lat;lon;timestamp;pressure;altitude;pressure_sealevel;temperature;humidity
76378;BME280;65200;49.500;8.654;2023-10-09T00:00:33;101003.50;;;22.16;52.51
76378;BME280;65200;49.500;8.654;2023-10-09T00:03:21;100995.88;;;22.18;52.96
76378;BME280;65200;49.500;8.654;2023-10-09T00:05:48;100992.09;;;22.02;53.36
76378;BME280;65200;49.500;8.654;2023-10-09T00:08:18;100980.84;;;21.99;53.19
76378;BME280;65200;49.500;8.654;2023-10-09T00:10:47;100978.50;;;22.07;52.02
76378;BME280;65200;49.500;8.654;2023-10-09T00:13:18;100975.00;;;22.28;51.45
76378;BME280;65200;49.500;8.654;2023-10-09T00:15:46;100979.00;;;22.21;51.46
76378;BME280;65200;49.500;8.654;2023-10-09T00:18:18;100977.00;;;22.33;51.25
76378;BME280;65200;49.500;8.654;2023-10-09T00:20:48;100975.16;;;21.84;52.36
76378;BME280;65200;49.500;8.654;2023-10-09T00:23:20;100975.63;;;21.64;52.57
76378;BME280;65200;49.500;8.654;2023-10-09T00:25:50;100975.66;;;21.81;52.18
76378;BME280;65200;49.500;8.654;2023-10-09T00:28:34;100969.06;;;21.48;53.66
76378;BME280;65200;49.500;8.654;2023-10-09T00:31:03;100973.88;;;22.08;52.59
76378;BME280;65200;49.500;8.654;2023-10-09T00:33:31;100978.06;;;21.77;50.76
76378;BME280;65200;49.500;8.654;2023-10-09T00:36:01;100970.28;;;21.86;51.13
76378;BME280;65200;49.500;8.654;2023-10-09T00:38:34;100961.16;;;22.35;49.61
76378;BME280;65200;49.500;8.654;2023-10-09T00:41:01;100964.25;;;22.22;50.44
76378;BME280;65200;49.500;8.654;2023-10-09T00:43:35;100964.19;;;22.17;52.18
76378;BME280;65200;49.500;8.654;2023-10-09T00:46:05;100950.13;;;22.46;51.54
76378;BME280;65200;49.500;8.654;2023-10-09T00:48:47;100951.34;;;22.77;50.96
76378;BME280;65200;49.500;8.654;2023-10-09T00:51:16;100943.91;;;22.29;52.14
76378;BME280;65200;49.500;8.654;2023-10-09T00:53:44;100939.69;;;22.43;51.66
76378;BME280;65200;49.500;8.654;2023-10-09T00:56:14;100950.13;;;22.89;51.26
76378;BME280;65200;49.500;8.654;2023-10-09T00:58:47;100947.59;;;22.83;49.97
76378;BME280;65200;49.500;8.654;2023-10-09T01:01:21;100943.41;;;22.75;50.66
76378;BME280;65200;49.500;8.654;2023-10-09T01:03:53;100945.66;;;22.57;51.20
76378;BME280;65200;49.500;8.654;2023-10-09T01:06:22;100944.97;;;22.50;51.85
76378;BME280;65200;49.500;8.654;2023-10-09T01:08:53;100946.00;;;22.87;50.68
76378;BME280;65200;49.500;8.654;2023-10-09T01:11:34;100943.44;;;22.54;52.22
76378;BME280;65200;49.500;8.654;2023-10-09T01:14:07;100937.00;;;22.65;52.02
76378;BME280;65200;49.500;8.654;2023-10-09T01:16:39;100940.22;;;22.02;52.99
76378;BME280;65200;49.500;8.654;2023-10-09T01:19:08;100935.44;;;22.31;52.45
76378;BME280;65200;49.500;8.654;2023-10-09T01:21:45;100934.88;;;22.50;52.03
76378;BME280;65200;49.500;8.654;2023-10-09T01:24:13;100933.22;;;22.92;51.38
76378;BME280;65200;49.500;8.654;2023-10-09T01:26:42;100937.59;;;22.93;50.67
76378;BME280;65200;49.500;8.654;2023-10-09T01:29:12;100926.91;;;22.92;51.16
76378;BME280;65200;49.500;8.654;2023-10-09T01:31:42;100933.00;;;22.99;51.07
76378;BME280;65200;49.500;8.654;2023-10-09T01:34:16;100935.22;;;23.02;51.23
76378;BME280;65200;49.500;8.654;2023-10-09T01:36:43;100932.91;;;23.16;51.10
76378;BME280;65200;49.500;8.654;2023-10-09T01:39:15;100918.97;;;23.17;50.69
76378;BME280;65200;49.500;8.654;2023-10-09T01:41:56;100930.53;;;22.97;51.50
76378;BME280;65200;49.500;8.654;2023-10-09T01:44:26;100920.47;;;23.03;51.31
76378;BME280;65200;49.500;8.654;2023-10-09T01:46:55;100911.00;;;23.42;50.06
76378;BME280;65200;49.500;8.654;2023-10-09T01:49:23;100917.31;;;23.16;50.95
76378;BME280;65200;49.500;8.654;2023-10-09T01:51:56;100908.50;;;23.09;51.40
76378;BME280;65200;49.500;8.654;2023-10-09T01:54:29;100900.53;;;22.33;52.61
76378;BME280;65200;49.500;8.654;2023-10-09T01:57:03;100902.41;;;22.32;53.47
76378;BME280;65200;49.500;8.654;2023-10-09T01:59:34;100893.88;;;22.72;51.96
76378;BME280;65200;49.500;8.654;2023-10-09T02:02:03;100892.88;;;22.78;52.45
76378;BME280;65200;49.500;8.654;2023-10-09T02:04:39;100889.63;;;22.81;51.92
76378;BME280;65200;49.500;8.654;2023-10-09T02:07:06;100892.88;;;22.78;51.74
76378;BME280;65200;49.500;8.654;2023-10-09T02:09:35;100878.97;;;23.38;50.36
76378;BME280;65200;49.500;8.654;2023-10-09T02:12:10;100892.75;;;23.21;50.78
76378;BME280;65200;49.500;8.654;2023-10-09T02:14:36;100883.03;;;22.34;53.16
76378;BME280;65200;49.500;8.654;2023-10-09T02:17:06;100892.16;;;22.87;51.45
76378;BME280;65200;49.500;8.654;2023-10-09T02:19:43;100889.44;;;22.66;51.66
76378;BME280;65200;49.500;8.654;2023-10-09T02:22:14;100886.84;;;23.02;50.92
76378;BME280;65200;49.500;8.654;2023-10-09T02:24:43;100895.31;;;22.53;51.24
76378;BME280;65200;49.500;8.654;2023-10-09T02:27:17;100894.06;;;22.87;50.39
76378;BME280;65200;49.500;8.654;2023-10-09T02:30:07;100899.34;;;22.72;50.40
76378;BME280;65200;49.500;8.654;2023-10-09T02:32:45;100897.81;;;22.81;51.09
76378;BME280;65200;49.500;8.654;2023-10-09T02:35:17;100898.34;;;22.78;51.13
76378;BME280;65200;49.500;8.654;2023-10-09T02:37:53;100900.50;;;22.76;51.36
76378;BME280;65200;49.500;8.654;2023-10-09T02:40:21;100898.78;;;22.96;50.02
76378;BME280;65200;49.500;8.654;2023-10-09T02:42:51;100899.47;;;22.82;50.78
76378;BME280;65200;49.500;8.654;2023-10-09T02:45:17;100893.69;;;23.32;48.97
76378;BME280;65200;49.500;8.654;2023-10-09T02:47:44;100898.38;;;23.36;49.30
76378;BME280;65200;49.500;8.654;2023-10-09T02:50:14;100893.53;;;22.63;50.92
76378;BME280;65200;49.500;8.654;2023-10-09T02:52:46;100895.09;;;22.81;49.86
76378;BME280;65200;49.500;8.654;2023-10-09T02:55:12;100896.31;;;22.95;49.87
76378;BME280;65200;49.500;8.654;2023-10-09T02:57:50;100893.19;;;22.81;49.77
76378;BME280;65200;49.500;8.654;2023-10-09T03:00:30;100900.31;;;23.09;49.07
76378;BME280;65200;49.500;8.654;2023-10-09T03:02:57;100905.53;;;23.42;48.46
76378;BME280;65200;49.500;8.654;2023-10-09T03:05:24;100906.09;;;23.13;48.54
76378;BME280;65200;49.500;8.654;2023-10-09T03:07:52;100909.28;;;23.31;48.36
76378;BME280;65200;49.500;8.654;2023-10-09T03:10:19;100907.06;;;23.28;48.64
76378;BME280;65200;49.500;8.654;2023-10-09T03:12:46;100904.53;;;23.22;48.21
76378;BME280;65200;49.500;8.654;2023-10-09T03:15:18;100897.41;;;23.52;47.90
76378;BME280;65200;49.500;8.654;2023-10-09T03:17:45;100892.41;;;22.86;49.48
76378;BME280;65200;49.500;8.654;2023-10-09T03:20:13;100888.69;;;22.70;49.55
76378;BME280;65200;49.500;8.654;2023-10-09T03:22:39;100891.91;;;22.89;49.36
76378;BME280;65200;49.500;8.654;2023-10-09T03:25:07;100895.56;;;22.73;49.53
76378;BME280;65200;49.500;8.654;2023-10-09T03:27:37;100887.03;;;22.69;49.45
76378;BME280;65200;49.500;8.654;2023-10-09T03:30:08;100879.78;;;22.37;50.39
76378;BME280;65200;49.500;8.654;2023-10-09T03:32:36;100888.69;;;22.97;48.94
76378;BME280;65200;49.500;8.654;2023-10-09T03:35:04;100884.22;;;22.86;49.68
76378;BME280;65200;49.500;8.654;2023-10-09T03:37:35;100880.41;;;22.60;49.48
76378;BME280;65200;49.500;8.654;2023-10-09T03:40:01;100896.88;;;23.24;48.95
76378;BME280;65200;49.500;8.654;2023-10-09T03:42:28;100883.84;;;22.77;49.90
76378;BME280;65200;49.500;8.654;2023-10-09T03:44:55;100889.16;;;23.16;48.66
76378;BME280;65200;49.500;8.654;2023-10-09T03:47:23;100886.78;;;22.97;49.44
76378;BME280;65200;49.500;8.654;2023-10-09T03:49:50;100894.09;;;23.19;48.67
76378;BME280;65200;49.500;8.654;2023-10-09T03:52:18;100887.75;;;22.60;50.38
76378;BME280;65200;49.500;8.654;2023-10-09T03:54:44;100883.66;;;22.62;49.78
76378;BME280;65200;49.500;8.654;2023-10-09T03:57:12;100882.25;;;22.81;49.94
76378;BME280;65200;49.500;8.654;2023-10-09T03:59:43;100877.25;;;22.52;50.67
76378;BME280;65200;49.500;8.654;2023-10-09T04:02:12;100883.34;;;22.16;51.70
76378;BME280;65200;49.500;8.654;2023-10-09T04:04:39;100876.63;;;22.02;52.63
76378;BME280;65200;49.500;8.654;2023-10-09T04:07:12;100873.25;;;22.38;51.64
76378;BME280;65200;49.500;8.654;2023-10-09T04:09:40;100874.09;;;22.60;51.37
76378;BME280;65200;49.500;8.654;2023-10-09T04:12:10;100871.53;;;22.75;50.39
76378;BME280;65200;49.500;8.654;2023-10-09T04:14:46;100872.47;;;22.59;50.30
76378;BME280;65200;49.500;8.654;2023-10-09T04:17:19;100865.56;;;22.35;51.67
76378;BME280;65200;49.500;8.654;2023-10-09T04:20:06;100865.19;;;22.96;49.69
76378;BME280;65200;49.500;8.654;2023-10-09T04:22:57;100861.34;;;22.97;49.47
76378;BME280;65200;49.500;8.654;2023-10-09T04:25:31;100861.31;;;22.92;49.61
76378;BME280;65200;49.500;8.654;2023-10-09T04:28:07;100855.53;;;22.62;49.88
76378;BME280;65200;49.500;8.654;2023-10-09T04:30:35;100865.69;;;22.66;50.36
76378;BME280;65200;49.500;8.654;2023-10-09T04:33:05;100861.41;;;22.75;50.38
76378;BME280;65200;49.500;8.654;2023-10-09T04:35:36;100856.28;;;22.57;50.66
76378;BME280;65200;49.500;8.654;2023-10-09T04:38:05;100850.72;;;22.74;50.15
76378;BME280;65200;49.500;8.654;2023-10-09T04:40:32;100846.50;;;22.40;51.49
76378;BME280;65200;49.500;8.654;2023-10-09T04:43:14;100852.56;;;21.99;52.45
76378;BME280;65200;49.500;8.654;2023-10-09T04:45:45;100860.59;;;22.75;51.08
76378;BME280;65200;49.500;8.654;2023-10-09T04:48:32;100865.59;;;23.15;49.22
76378;BME280;65200;49.500;8.654;2023-10-09T04:50:58;100869.66;;;23.07;50.04
76378;BME280;65200;49.500;8.654;2023-10-09T04:53:43;100877.25;;;23.00;50.03
76378;BME280;65200;49.500;8.654;2023-10-09T04:56:15;100871.19;;;22.98;49.71
76378;BME280;65200;49.500;8.654;2023-10-09T04:58:42;100868.75;;;22.27;51.22
76378;BME280;65200;49.500;8.654;2023-10-09T05:01:09;100861.47;;;22.80;50.81
76378;BME280;65200;49.500;8.654;2023-10-09T05:03:41;100865.94;;;22.91;50.52
76378;BME280;65200;49.500;8.654;2023-10-09T05:06:13;100884.31;;;22.96;50.05
76378;BME280;65200;49.500;8.654;2023-10-09T05:09:09;100872.66;;;23.05;50.03
76378;BME280;65200;49.500;8.654;2023-10-09T05:11:38;100877.34;;;22.83;50.24
76378;BME280;65200;49.500;8.654;2023-10-09T05:14:20;100873.56;;;23.16;49.42
76378;BME280;65200;49.500;8.654;2023-10-09T05:17:00;100886.78;;;22.97;49.85
76378;BME280;65200;49.500;8.654;2023-10-09T05:19:28;100884.50;;;23.16;49.48
76378;BME280;65200;49.500;8.654;2023-10-09T05:22:14;100901.91;;;23.32;49.41
76378;BME280;65200;49.500;8.654;2023-10-09T05:24:56;100901.06;;;23.63;48.36
76378;BME280;65200;49.500;8.654;2023-10-09T05:27:22;100894.84;;;23.09;48.88
76378;BME280;65200;49.500;8.654;2023-10-09T05:30:10;100900.94;;;23.21;49.55
76378;BME280;65200;49.500;8.654;2023-10-09T05:32:51;100899.41;;;23.62;48.30
76378;BME280;65200;49.500;8.654;2023-10-09T05:35:21;100903.38;;;23.81;47.91
76378;BME280;65200;49.500;8.654;2023-10-09T05:37:55;100895.34;;;23.33;48.77
76378;BME280;65200;49.500;8.654;2023-10-09T05:40:28;100891.53;;;23.34;48.87
76378;BME280;65200;49.500;8.654;2023-10-09T05:42:56;100895.22;;;23.23;49.23
76378;BME280;65200;49.500;8.654;2023-10-09T05:45:28;100891.63;;;23.17;49.66
76378;BME280;65200;49.500;8.654;2023-10-09T05:48:12;100893.41;;;22.75;50.61
76378;BME280;65200;49.500;8.654;2023-10-09T05:50:58;100901.78;;;22.95;49.91
76378;BME280;65200;49.500;8.654;2023-10-09T05:53:37;100900.09;;;23.16;49.76
76378;BME280;65200;49.500;8.654;2023-10-09T05:56:19;100904.31;;;23.60;48.39
76378;BME280;65200;49.500;8.654;2023-10-09T05:59:08;100907.72;;;23.14;49.58
76378;BME280;65200;49.500;8.654;2023-10-09T06:01:51;100909.25;;;23.58;48.67
76378;BME280;65200;49.500;8.654;2023-10-09T06:04:32;100902.25;;;23.77;48.12
76378;BME280;65200;49.500;8.654;2023-10-09T06:07:14;100904.53;;;23.90;47.51
76378;BME280;65200;49.500;8.654;2023-10-09T06:09:48;100907.16;;;24.11;47.05
76378;BME280;65200;49.500;8.654;2023-10-09T06:12:19;100901.22;;;23.88;47.79
76378;BME280;65200;49.500;8.654;2023-10-09T06:15:03;100902.19;;;24.03;47.29
76378;BME280;65200;49.500;8.654;2023-10-09T06:17:57;100898.00;;;23.54;48.27
76378;BME280;65200;49.500;8.654;2023-10-09T06:20:45;100904.91;;;23.98;47.55
76378;BME280;65200;49.500;8.654;2023-10-09T06:23:31;100912.78;;;23.53;48.12
76378;BME280;65200;49.500;8.654;2023-10-09T06:26:12;100913.84;;;23.52;48.28
76378;BME280;65200;49.500;8.654;2023-10-09T06:28:50;100917.44;;;23.26;48.62
76378;BME280;65200;49.500;8.654;2023-10-09T06:31:36;100921.44;;;23.82;47.68
76378;BME280;65200;49.500;8.654;2023-10-09T06:34:26;100918.41;;;23.78;47.49
76378;BME280;65200;49.500;8.654;2023-10-09T06:36:57;100916.44;;;23.11;48.81
76378;BME280;65200;49.500;8.654;2023-10-09T06:39:30;100919.09;;;23.27;48.88
76378;BME280;65200;49.500;8.654;2023-10-09T06:42:14;100916.06;;;22.75;49.18
76378;BME280;65200;49.500;8.654;2023-10-09T06:44:54;100919.28;;;23.21;48.87
76378;BME280;65200;49.500;8.654;2023-10-09T06:47:21;100918.19;;;23.22;48.57
76378;BME280;65200;49.500;8.654;2023-10-09T06:49:50;100915.78;;;23.93;47.01
76378;BME280;65200;49.500;8.654;2023-10-09T06:52:31;100918.78;;;24.38;46.22
76378;BME280;65200;49.500;8.654;2023-10-09T06:55:11;100925.50;;;23.74;47.21
76378;BME280;65200;49.500;8.654;2023-10-09T06:57:45;100920.19;;;23.58;47.21
76378;BME280;65200;49.500;8.654;2023-10-09T07:00:14;100919.16;;;23.69;46.63
76378;BME280;65200;49.500;8.654;2023-10-09T07:02:58;100925.91;;;23.93;45.80
76378;BME280;65200;49.500;8.654;2023-10-09T07:05:37;100917.31;;;23.79;46.12
76378;BME280;65200;49.500;8.654;2023-10-09T07:08:24;100915.94;;;23.77;46.62
76378;BME280;65200;49.500;8.654;2023-10-09T07:11:02;100912.69;;;24.26;45.02
76378;BME280;65200;49.500;8.654;2023-10-09T07:13:46;100920.28;;;24.09;45.39
76378;BME280;65200;49.500;8.654;2023-10-09T07:16:20;100919.31;;;24.30;44.56
76378;BME280;65200;49.500;8.654;2023-10-09T07:18:49;100927.19;;;24.84;44.24
76378;BME280;65200;49.500;8.654;2023-10-09T07:21:21;100934.31;;;24.70;43.68
76378;BME280;65200;49.500;8.654;2023-10-09T07:23:55;100937.94;;;23.92;45.57
76378;BME280;65200;49.500;8.654;2023-10-09T07:26:23;100941.50;;;23.87;45.24
76378;BME280;65200;49.500;8.654;2023-10-09T07:29:02;100941.41;;;24.14;44.51
76378;BME280;65200;49.500;8.654;2023-10-09T07:31:41;100950.78;;;23.86;45.49
76378;BME280;65200;49.500;8.654;2023-10-09T07:34:10;100947.09;;;23.71;45.57
76378;BME280;65200;49.500;8.654;2023-10-09T07:36:56;100954.06;;;23.88;45.14
76378;BME280;65200;49.500;8.654;2023-10-09T07:39:28;100947.69;;;23.78;45.73
76378;BME280;65200;49.500;8.654;2023-10-09T07:42:01;100950.16;;;23.79;45.55
76378;BME280;65200;49.500;8.654;2023-10-09T07:44:41;100951.47;;;24.55;44.72
76378;BME280;65200;49.500;8.654;2023-10-09T07:47:18;100951.03;;;24.73;44.10
76378;BME280;65200;49.500;8.654;2023-10-09T07:49:45;100944.44;;;24.69;43.62
76378;BME280;65200;49.500;8.654;2023-10-09T07:52:20;100950.47;;;24.71;44.33
76378;BME280;65200;49.500;8.654;2023-10-09T07:54:51;100943.38;;;24.85;43.82
76378;BME280;65200;49.500;8.654;2023-10-09T07:57:26;100942.56;;;24.23;43.76
76378;BME280;65200;49.500;8.654;2023-10-09T07:59:54;100944.59;;;24.53;43.58
76378;BME280;65200;49.500;8.654;2023-10-09T08:02:27;100950.03;;;24.38;44.26
76378;BME280;65200;49.500;8.654;2023-10-09T08:04:58;100955.19;;;24.86;43.15
76378;BME280;65200;49.500;8.654;2023-10-09T08:07:30;100940.00;;;24.63;44.87
76378;BME280;65200;49.500;8.654;2023-10-09T08:10:03;100951.25;;;24.62;44.22
76378;BME280;65200;49.500;8.654;2023-10-09T08:12:48;100951.72;;;25.25;42.02
76378;BME280;65200;49.500;8.654;2023-10-09T08:15:46;100955.78;;;25.03;43.13
76378;BME280;65200;49.500;8.654;2023-10-09T08:18:16;100961.81;;;25.05;42.20
76378;BME280;65200;49.500;8.654;2023-10-09T08:20:53;100962.97;;;25.19;42.51
76378;BME280;65200;49.500;8.654;2023-10-09T08:23:35;100963.09;;;24.77;43.13
76378;BME280;65200;49.500;8.654;2023-10-09T08:26:15;100971.75;;;24.59;43.38
76378;BME280;65200;49.500;8.654;2023-10-09T08:28:54;100956.06;;;25.11;43.30
76378;BME280;65200;49.500;8.654;2023-10-09T08:31:29;100958.78;;;24.96;42.70
76378;BME280;65200;49.500;8.654;2023-10-09T08:34:10;100958.03;;;25.31;42.42
76378;BME280;65200;49.500;8.654;2023-10-09T08:36:49;100957.38;;;24.84;43.08
76378;BME280;65200;49.500;8.654;2023-10-09T08:39:19;100962.69;;;25.20;42.98
76378;BME280;65200;49.500;8.654;2023-10-09T08:41:50;100950.84;;;25.10;43.57
76378;BME280;65200;49.500;8.654;2023-10-09T08:44:18;100956.88;;;25.07;42.73
76378;BME280;65200;49.500;8.654;2023-10-09T08:46:49;100956.34;;;25.15;42.91
76378;BME280;65200;49.500;8.654;2023-10-09T08:49:16;100965.66;;;24.99;43.00
76378;BME280;65200;49.500;8.654;2023-10-09T08:51:43;100976.16;;;25.32;42.59
76378;BME280;65200;49.500;8.654;2023-10-09T08:54:12;100978.38;;;26.15;41.01
76378;BME280;65200;49.500;8.654;2023-10-09T08:56:41;100987.47;;;26.11;41.95
76378;BME280;65200;49.500;8.654;2023-10-09T08:59:14;100981.63;;;25.22;43.00
76378;BME280;65200;49.500;8.654;2023-10-09T09:01:43;100989.34;;;26.35;40.36
76378;BME280;65200;49.500;8.654;2023-10-09T09:04:33;100976.19;;;26.17;41.58
76378;BME280;65200;49.500;8.654;2023-10-09T09:06:59;100976.75;;;25.79;42.27
76378;BME280;65200;49.500;8.654;2023-10-09T09:09:27;100979.22;;;25.50;41.35
76378;BME280;65200;49.500;8.654;2023-10-09T09:11:58;100982.50;;;25.47;42.25
76378;BME280;65200;49.500;8.654;2023-10-09T09:14:35;100982.50;;;25.83;42.08
76378;BME280;65200;49.500;8.654;2023-10-09T09:17:03;100985.53;;;26.11;40.71
76378;BME280;65200;49.500;8.654;2023-10-09T09:19:32;100976.47;;;25.55;42.94
76378;BME280;65200;49.500;8.654;2023-10-09T09:22:03;100987.72;;;25.94;41.15
76378;BME280;65200;49.500;8.654;2023-10-09T09:24:41;100984.97;;;26.19;40.68
76378;BME280;65200;49.500;8.654;2023-10-09T09:27:43;100985.81;;;26.98;40.20
76378;BME280;65200;49.500;8.654;2023-10-09T09:30:22;100969.06;;;26.90;39.97
76378;BME280;65200;49.500;8.654;2023-10-09T09:32:49;100959.38;;;27.03;39.78
76378;BME280;65200;49.500;8.654;2023-10-09T09:35:36;100951.75;;;26.89;39.90
76378;BME280;65200;49.500;8.654;2023-10-09T09:38:03;100946.84;;;26.81;40.64
76378;BME280;65200;49.500;8.654;2023-10-09T09:40:31;100946.50;;;26.24;41.69
76378;BME280;65200;49.500;8.654;2023-10-09T09:43:02;100939.34;;;26.92;40.34
76378;BME280;65200;49.500;8.654;2023-10-09T09:45:32;100959.41;;;26.24;40.76
76378;BME280;65200;49.500;8.654;2023-10-09T09:48:01;100960.53;;;25.88;42.08
76378;BME280;65200;49.500;8.654;2023-10-09T09:50:31;100966.47;;;26.45;40.95
76378;BME280;65200;49.500;8.654;2023-10-09T09:52:58;100967.84;;;26.52;40.71
76378;BME280;65200;49.500;8.654;2023-10-09T09:55:26;100970.16;;;27.43;39.46
76378;BME280;65200;49.500;8.654;2023-10-09T09:58:01;100974.13;;;26.58;40.23
76378;BME280;65200;49.500;8.654;2023-10-09T10:00:33;100980.72;;;26.72;41.19
76378;BME280;65200;49.500;8.654;2023-10-09T10:03:11;100985.75;;;26.30;41.71
76378;BME280;65200;49.500;8.654;2023-10-09T10:05:41;100989.91;;;26.27;41.52
76378;BME280;65200;49.500;8.654;2023-10-09T10:08:11;100990.75;;;26.08;41.75
76378;BME280;65200;49.500;8.654;2023-10-09T10:10:44;100994.56;;;26.17;41.57
76378;BME280;65200;49.500;8.654;2023-10-09T10:13:17;101002.03;;;26.11;41.41
76378;BME280;65200;49.500;8.654;2023-10-09T10:16:05;100986.53;;;26.65;41.59
76378;BME280;65200;49.500;8.654;2023-10-09T10:18:57;100983.31;;;26.23;42.28
76378;BME280;65200;49.500;8.654;2023-10-09T10:21:32;100987.81;;;26.83;41.75
76378;BME280;65200;49.500;8.654;2023-10-09T10:24:03;100988.13;;;26.76;42.59
76378;BME280;65200;49.500;8.654;2023-10-09T10:26:39;100991.88;;;27.44;40.19
76378;BME280;65200;49.500;8.654;2023-10-09T10:29:18;100999.31;;;27.44;40.49
76378;BME280;65200;49.500;8.654;2023-10-09T10:31:55;101000.38;;;27.53;39.82
76378;BME280;65200;49.500;8.654;2023-10-09T10:34:23;100998.97;;;27.07;41.52
76378;BME280;65200;49.500;8.654;2023-10-09T10:36:50;101006.13;;;27.08;42.38
76378;BME280;65200;49.500;8.654;2023-10-09T10:39:24;101010.91;;;26.87;40.86
76378;BME280;65200;49.500;8.654;2023-10-09T10:42:08;100994.91;;;27.48;40.74
76378;BME280;65200;49.500;8.654;2023-10-09T10:44:40;101006.22;;;27.80;40.63
76378;BME280;65200;49.500;8.654;2023-10-09T10:47:14;100996.31;;;27.79;40.72
76378;BME280;65200;49.500;8.654;2023-10-09T10:49:58;100992.38;;;27.08;41.15
76378;BME280;65200;49.500;8.654;2023-10-09T10:52:33;100997.47;;;27.73;40.51
76378;BME280;65200;49.500;8.654;2023-10-09T10:55:08;101003.59;;;28.27;39.67
76378;BME280;65200;49.500;8.654;2023-10-09T10:57:43;101011.97;;;28.69;39.00
76378;BME280;65200;49.500;8.654;2023-10-09T11:00:34;101004.03;;;29.10;39.29
76378;BME280;65200;49.500;8.654;2023-10-09T11:03:18;101016.34;;;28.75;38.29
76378;BME280;65200;49.500;8.654;2023-10-09T11:05:54;101008.03;;;28.52;39.08
76378;BME280;65200;49.500;8.654;2023-10-09T11:08:24;100998.22;;;29.06;37.01
76378;BME280;65200;49.500;8.654;2023-10-09T11:11:10;100993.28;;;28.38;38.24
76378;BME280;65200;49.500;8.654;2023-10-09T11:13:41;100977.69;;;28.28;39.13
76378;BME280;65200;49.500;8.654;2023-10-09T11:16:20;100951.19;;;29.16;37.56
76378;BME280;65200;49.500;8.654;2023-10-09T11:19:07;100938.63;;;29.42;37.70
76378;BME280;65200;49.500;8.654;2023-10-09T11:21:49;100936.72;;;29.24;38.50
76378;BME280;65200;49.500;8.654;2023-10-09T11:24:24;100921.38;;;29.69;37.56
76378;BME280;65200;49.500;8.654;2023-10-09T11:26:50;100916.31;;;29.39;38.46
76378;BME280;65200;49.500;8.654;2023-10-09T11:29:29;100918.84;;;29.54;36.73
76378;BME280;65200;49.500;8.654;2023-10-09T11:31:59;100908.91;;;28.60;38.87
76378;BME280;65200;49.500;8.654;2023-10-09T11:34:27;100897.50;;;28.43;39.01
76378;BME280;65200;49.500;8.654;2023-10-09T11:36:58;100902.94;;;28.53;39.15
76378;BME280;65200;49.500;8.654;2023-10-09T11:39:25;100893.34;;;28.88;38.70
76378;BME280;65200;49.500;8.654;2023-10-09T11:42:01;100911.53;;;28.89;38.95
76378;BME280;65200;49.500;8.654;2023-10-09T11:44:36;100907.56;;;28.58;39.30
76378;BME280;65200;49.500;8.654;2023-10-09T11:47:06;100906.59;;;29.09;38.56
76378;BME280;65200;49.500;8.654;2023-10-09T11:49:51;100912.56;;;28.56;39.60
76378;BME280;65200;49.500;8.654;2023-10-09T11:52:54;100915.47;;;28.64;38.89
76378;BME280;65200;49.500;8.654;2023-10-09T11:55:35;100916.56;;;28.40;40.64
76378;BME280;65200;49.500;8.654;2023-10-09T11:58:01;100927.47;;;28.31;39.42
76378;BME280;65200;49.500;8.654;2023-10-09T12:00:27;100932.25;;;28.68;38.27
76378;BME280;65200;49.500;8.654;2023-10-09T12:02:56;100925.31;;;28.47;37.87
76378;BME280;65200;49.500;8.654;2023-10-09T12:05:30;100917.03;;;28.28;38.41
76378;BME280;65200;49.500;8.654;2023-10-09T12:07:56;100902.78;;;27.92;38.77
76378;BME280;65200;49.500;8.654;2023-10-09T12:10:24;100894.56;;;27.87;38.35
76378;BME280;65200;49.500;8.654;2023-10-09T12:12:51;100897.72;;;27.76;39.43
76378;BME280;65200;49.500;8.654;2023-10-09T12:15:17;100887.44;;;27.81;38.75
76378;BME280;65200;49.500;8.654;2023-10-09T12:17:45;100895.34;;;28.40;38.83
76378;BME280;65200;49.500;8.654;2023-10-09T12:20:14;100895.28;;;29.43;38.27
76378;BME280;65200;49.500;8.654;2023-10-09T12:22:56;100900.66;;;28.79;36.64
76378;BME280;65200;49.500;8.654;2023-10-09T12:25:23;100897.81;;;29.02;36.38
76378;BME280;65200;49.500;8.654;2023-10-09T12:27:50;100897.78;;;28.23;36.91
76378;BME280;65200;49.500;8.654;2023-10-09T12:30:19;100888.19;;;28.63;36.70
76378;BME280;65200;49.500;8.654;2023-10-09T12:32:52;100874.38;;;29.00;35.97
76378;BME280;65200;49.500;8.654;2023-10-09T12:35:20;100887.06;;;29.38;34.83
76378;BME280;65200;49.500;8.654;2023-10-09T12:37:46;100880.97;;;29.04;35.11
76378;BME280;65200;49.500;8.654;2023-10-09T12:40:15;100883.03;;;29.63;34.67
76378;BME280;65200;49.500;8.654;2023-10-09T12:42:50;100873.72;;;29.91;33.35
76378;BME280;65200;49.500;8.654;2023-10-09T12:45:17;100876.75;;;29.76;33.86
76378;BME280;65200;49.500;8.654;2023-10-09T12:47:52;100869.16;;;29.35;34.21
76378;BME280;65200;49.500;8.654;2023-10-09T12:50:19;100856.16;;;29.36;35.02
76378;BME280;65200;49.500;8.654;2023-10-09T12:52:53;100864.75;;;29.67;33.30
76378;BME280;65200;49.500;8.654;2023-10-09T12:55:20;100869.31;;;30.03;32.94
76378;BME280;65200;49.500;8.654;2023-10-09T12:57:46;100851.06;;;30.02;33.09
76378;BME280;65200;49.500;8.654;2023-10-09T13:00:13;100849.63;;;30.59;32.50
76378;BME280;65200;49.500;8.654;2023-10-09T13:02:50;100840.47;;;30.72;31.52
76378;BME280;65200;49.500;8.654;2023-10-09T13:05:17;100847.84;;;31.12;31.94
76378;BME280;65200;49.500;8.654;2023-10-09T13:07:53;100852.50;;;31.47;29.49
76378;BME280;65200;49.500;8.654;2023-10-09T13:10:21;100848.72;;;30.99;29.84
76378;BME280;65200;49.500;8.654;2023-10-09T13:12:50;100852.03;;;30.74;30.25
76378;BME280;65200;49.500;8.654;2023-10-09T13:15:20;100851.06;;;30.16;30.96
76378;BME280;65200;49.500;8.654;2023-10-09T13:17:47;100841.84;;;30.20;30.90
76378;BME280;65200;49.500;8.654;2023-10-09T13:20:13;100841.47;;;30.00;30.55
76378;BME280;65200;49.500;8.654;2023-10-09T13:22:42;100840.31;;;30.41;31.49